sensor_id;sensor_type;location;lat;lon;timestamp;P1;durP1;ratioP1;P2;durP2;ratioP2
34317;SDS011;20582;52.196;20.952;2023-06-14T00:00:43;24.00;;;12.35;;
34317;SDS011;20582;52.196;20.952;2023-06-14T00:03:09;21.58;;;12.70;;
34317;SDS011;20582;52.196;20.952;2023-06-14T00:05:37;19.50;;;12.38;;
34317;SDS011;20582;52.196;20.952;2023-06-14T00:08:08;19.83;;;12.88;;
34317;SDS011;20582;52.196;20.952;2023-06-14T00:10:35;22.30;;;12.15;;
34317;SDS011;20582;52.196;20.952;2023-06-14T00:13:04;18.35;;;11.80;;
34317;SDS011;20582;52.196;20.952;2023-06-14T00:15:32;21.45;;;12.45;;
34317;SDS011;20582;52.196;20.952;2023-06-14T00:17:58;17.38;;;11.85;;
34317;SDS011;20582;52.196;20.952;2023-06-14T00:20:27;18.15;;;11.32;;
34317;SDS011;20582;52.196;20.952;2023-06-14T00:22:54;18.63;;;12.05;;
34317;SDS011;20582;52.196;20.952;2023-06-14T00:25:22;18.77;;;11.15;;
34317;SDS011;20582;52.196;20.952;2023-06-14T00:27:48;20.67;;;10.77;;
34317;SDS011;20582;52.196;20.952;2023-06-14T00:30:14;18.85;;;11.20;;
34317;SDS011;20582;52.196;20.952;2023-06-14T00:32:40;17.52;;;11.38;;
34317;SDS011;20582;52.196;20.952;2023-06-14T00:35:08;16.73;;;11.15;;
34317;SDS011;20582;52.196;20.952;2023-06-14T00:37:34;16.38;;;11.52;;
34317;SDS011;20582;52.196;20.952;2023-06-14T00:40:00;15.45;;;10.75;;
34317;SDS011;20582;52.196;20.952;2023-06-14T00:42:27;17.52;;;11.20;;
34317;SDS011;20582;52.196;20.952;2023-06-14T00:44:53;18.25;;;11.05;;
34317;SDS011;20582;52.196;20.952;2023-06-14T00:47:19;17.23;;;10.77;;
34317;SDS011;20582;52.196;20.952;2023-06-14T00:49:46;18.95;;;11.50;;
34317;SDS011;20582;52.196;20.952;2023-06-14T00:52:13;15.90;;;11.00;;
34317;SDS011;20582;52.196;20.952;2023-06-14T00:54:39;19.15;;;10.63;;
34317;SDS011;20582;52.196;20.952;2023-06-14T00:57:06;18.67;;;10.35;;
34317;SDS011;20582;52.196;20.952;2023-06-14T00:59:33;14.48;;;10.60;;
34317;SDS011;20582;52.196;20.952;2023-06-14T01:01:59;18.60;;;10.55;;
34317;SDS011;20582;52.196;20.952;2023-06-14T01:04:25;16.23;;;10.60;;
34317;SDS011;20582;52.196;20.952;2023-06-14T01:09:33;17.35;;;10.20;;
34317;SDS011;20582;52.196;20.952;2023-06-14T01:12:11;17.95;;;10.38;;
34317;SDS011;20582;52.196;20.952;2023-06-14T01:14:39;17.17;;;11.57;;
34317;SDS011;20582;52.196;20.952;2023-06-14T01:17:07;15.73;;;10.63;;
34317;SDS011;20582;52.196;20.952;2023-06-14T01:19:40;15.45;;;10.68;;
34317;SDS011;20582;52.196;20.952;2023-06-14T01:22:07;17.45;;;11.27;;
34317;SDS011;20582;52.196;20.952;2023-06-14T01:24:34;18.08;;;11.05;;
34317;SDS011;20582;52.196;20.952;2023-06-14T01:27:00;18.58;;;10.63;;
34317;SDS011;20582;52.196;20.952;2023-06-14T01:29:27;17.33;;;11.13;;
34317;SDS011;20582;52.196;20.952;2023-06-14T01:31:57;16.65;;;10.98;;
34317;SDS011;20582;52.196;20.952;2023-06-14T01:34:23;16.38;;;11.57;;
34317;SDS011;20582;52.196;20.952;2023-06-14T01:36:49;15.40;;;11.43;;
34317;SDS011;20582;52.196;20.952;2023-06-14T01:39:16;17.48;;;11.13;;
34317;SDS011;20582;52.196;20.952;2023-06-14T01:41:43;20.55;;;12.63;;
34317;SDS011;20582;52.196;20.952;2023-06-14T01:44:10;17.08;;;12.05;;
34317;SDS011;20582;52.196;20.952;2023-06-14T01:46:38;16.13;;;11.93;;
34317;SDS011;20582;52.196;20.952;2023-06-14T01:49:03;16.35;;;11.63;;
34317;SDS011;20582;52.196;20.952;2023-06-14T01:51:29;16.80;;;11.75;;
34317;SDS011;20582;52.196;20.952;2023-06-14T01:53:55;19.98;;;12.32;;
34317;SDS011;20582;52.196;20.952;2023-06-14T01:56:22;19.92;;;12.15;;
34317;SDS011;20582;52.196;20.952;2023-06-14T01:58:48;16.15;;;11.65;;
34317;SDS011;20582;52.196;20.952;2023-06-14T02:01:14;17.20;;;11.05;;
34317;SDS011;20582;52.196;20.952;2023-06-14T02:03:41;16.10;;;10.80;;
34317;SDS011;20582;52.196;20.952;2023-06-14T02:06:07;19.15;;;12.30;;
34317;SDS011;20582;52.196;20.952;2023-06-14T02:08:33;16.02;;;11.25;;
34317;SDS011;20582;52.196;20.952;2023-06-14T02:10:59;21.38;;;12.07;;
34317;SDS011;20582;52.196;20.952;2023-06-14T02:13:25;18.85;;;11.75;;
34317;SDS011;20582;52.196;20.952;2023-06-14T02:15:51;15.23;;;11.55;;
34317;SDS011;20582;52.196;20.952;2023-06-14T02:18:19;21.05;;;12.55;;
34317;SDS011;20582;52.196;20.952;2023-06-14T02:20:46;16.38;;;11.63;;
34317;SDS011;20582;52.196;20.952;2023-06-14T02:23:12;18.48;;;11.55;;
34317;SDS011;20582;52.196;20.952;2023-06-14T02:25:38;16.10;;;11.38;;
34317;SDS011;20582;52.196;20.952;2023-06-14T02:28:05;15.60;;;10.68;;
34317;SDS011;20582;52.196;20.952;2023-06-14T02:30:31;16.42;;;11.40;;
34317;SDS011;20582;52.196;20.952;2023-06-14T02:32:57;18.55;;;11.48;;
34317;SDS011;20582;52.196;20.952;2023-06-14T02:35:24;16.20;;;11.52;;
34317;SDS011;20582;52.196;20.952;2023-06-14T02:37:51;16.15;;;10.88;;
34317;SDS011;20582;52.196;20.952;2023-06-14T02:40:17;14.10;;;9.93;;
34317;SDS011;20582;52.196;20.952;2023-06-14T02:42:43;15.25;;;10.45;;
34317;SDS011;20582;52.196;20.952;2023-06-14T02:45:09;14.88;;;10.75;;
34317;SDS011;20582;52.196;20.952;2023-06-14T02:47:35;15.85;;;11.18;;
34317;SDS011;20582;52.196;20.952;2023-06-14T02:50:01;15.43;;;10.48;;
34317;SDS011;20582;52.196;20.952;2023-06-14T02:52:28;16.23;;;11.10;;
34317;SDS011;20582;52.196;20.952;2023-06-14T02:54:54;15.05;;;10.50;;
34317;SDS011;20582;52.196;20.952;2023-06-14T02:57:20;15.63;;;10.82;;
34317;SDS011;20582;52.196;20.952;2023-06-14T02:59:46;14.07;;;10.10;;
34317;SDS011;20582;52.196;20.952;2023-06-14T03:02:12;18.02;;;10.35;;
34317;SDS011;20582;52.196;20.952;2023-06-14T03:04:38;16.77;;;10.48;;
34317;SDS011;20582;52.196;20.952;2023-06-14T03:07:04;15.07;;;10.20;;
34317;SDS011;20582;52.196;20.952;2023-06-14T03:09:37;15.45;;;10.20;;
34317;SDS011;20582;52.196;20.952;2023-06-14T03:12:04;13.90;;;8.90;;
34317;SDS011;20582;52.196;20.952;2023-06-14T03:14:31;13.40;;;9.88;;
34317;SDS011;20582;52.196;20.952;2023-06-14T03:16:57;17.77;;;9.80;;
34317;SDS011;20582;52.196;20.952;2023-06-14T03:19:24;15.30;;;9.27;;
34317;SDS011;20582;52.196;20.952;2023-06-14T03:21:51;15.95;;;10.13;;
34317;SDS011;20582;52.196;20.952;2023-06-14T03:24:17;17.30;;;10.30;;
34317;SDS011;20582;52.196;20.952;2023-06-14T03:26:43;16.15;;;9.55;;
34317;SDS011;20582;52.196;20.952;2023-06-14T03:29:09;11.65;;;8.20;;
34317;SDS011;20582;52.196;20.952;2023-06-14T03:31:35;13.48;;;8.52;;
34317;SDS011;20582;52.196;20.952;2023-06-14T03:34:01;13.07;;;9.20;;
34317;SDS011;20582;52.196;20.952;2023-06-14T03:36:27;15.38;;;8.68;;
34317;SDS011;20582;52.196;20.952;2023-06-14T03:38:53;14.27;;;8.88;;
34317;SDS011;20582;52.196;20.952;2023-06-14T03:41:20;14.07;;;8.55;;
34317;SDS011;20582;52.196;20.952;2023-06-14T03:43:46;14.73;;;8.05;;
34317;SDS011;20582;52.196;20.952;2023-06-14T03:46:12;13.23;;;8.23;;
34317;SDS011;20582;52.196;20.952;2023-06-14T03:48:38;11.15;;;7.15;;
34317;SDS011;20582;52.196;20.952;2023-06-14T03:51:04;11.32;;;7.47;;
34317;SDS011;20582;52.196;20.952;2023-06-14T03:53:30;12.88;;;7.75;;
34317;SDS011;20582;52.196;20.952;2023-06-14T03:55:56;13.13;;;7.85;;
34317;SDS011;20582;52.196;20.952;2023-06-14T03:58:22;13.00;;;7.50;;
34317;SDS011;20582;52.196;20.952;2023-06-14T04:00:48;11.55;;;7.43;;
34317;SDS011;20582;52.196;20.952;2023-06-14T04:03:14;11.35;;;7.75;;
34317;SDS011;20582;52.196;20.952;2023-06-14T04:05:41;14.80;;;7.63;;
34317;SDS011;20582;52.196;20.952;2023-06-14T04:08:07;12.00;;;8.00;;
34317;SDS011;20582;52.196;20.952;2023-06-14T04:10:39;13.65;;;8.27;;
34317;SDS011;20582;52.196;20.952;2023-06-14T04:13:05;14.57;;;8.13;;
34317;SDS011;20582;52.196;20.952;2023-06-14T04:15:32;13.20;;;7.90;;
34317;SDS011;20582;52.196;20.952;2023-06-14T04:17:58;11.88;;;7.60;;
34317;SDS011;20582;52.196;20.952;2023-06-14T04:20:24;13.77;;;8.27;;
34317;SDS011;20582;52.196;20.952;2023-06-14T04:22:51;12.82;;;8.50;;
34317;SDS011;20582;52.196;20.952;2023-06-14T04:25:22;13.18;;;8.38;;
34317;SDS011;20582;52.196;20.952;2023-06-14T04:27:50;13.98;;;8.20;;
34317;SDS011;20582;52.196;20.952;2023-06-14T04:30:17;11.75;;;8.25;;
34317;SDS011;20582;52.196;20.952;2023-06-14T04:32:43;13.65;;;8.75;;
34317;SDS011;20582;52.196;20.952;2023-06-14T04:35:10;15.85;;;8.07;;
34317;SDS011;20582;52.196;20.952;2023-06-14T04:37:36;12.25;;;8.52;;
34317;SDS011;20582;52.196;20.952;2023-06-14T04:40:05;12.77;;;8.55;;
34317;SDS011;20582;52.196;20.952;2023-06-14T04:42:31;11.27;;;8.05;;
34317;SDS011;20582;52.196;20.952;2023-06-14T04:44:57;16.17;;;8.73;;
34317;SDS011;20582;52.196;20.952;2023-06-14T04:47:23;13.27;;;8.85;;
34317;SDS011;20582;52.196;20.952;2023-06-14T04:49:50;14.35;;;8.73;;
34317;SDS011;20582;52.196;20.952;2023-06-14T04:52:18;13.60;;;8.43;;
34317;SDS011;20582;52.196;20.952;2023-06-14T04:54:46;15.50;;;8.77;;
34317;SDS011;20582;52.196;20.952;2023-06-14T04:57:12;14.00;;;8.52;;
34317;SDS011;20582;52.196;20.952;2023-06-14T04:59:39;13.07;;;9.23;;
34317;SDS011;20582;52.196;20.952;2023-06-14T05:02:05;17.30;;;9.32;;
34317;SDS011;20582;52.196;20.952;2023-06-14T05:04:32;13.90;;;9.45;;
34317;SDS011;20582;52.196;20.952;2023-06-14T05:06:58;14.05;;;8.75;;
34317;SDS011;20582;52.196;20.952;2023-06-14T05:09:26;13.88;;;8.70;;
34317;SDS011;20582;52.196;20.952;2023-06-14T05:11:52;13.88;;;8.65;;
34317;SDS011;20582;52.196;20.952;2023-06-14T05:14:18;17.67;;;8.60;;
34317;SDS011;20582;52.196;20.952;2023-06-14T05:16:44;14.57;;;8.48;;
34317;SDS011;20582;52.196;20.952;2023-06-14T05:19:10;15.10;;;8.52;;
34317;SDS011;20582;52.196;20.952;2023-06-14T05:21:36;14.85;;;8.38;;
34317;SDS011;20582;52.196;20.952;2023-06-14T05:24:02;14.07;;;7.78;;
34317;SDS011;20582;52.196;20.952;2023-06-14T05:26:28;13.70;;;7.90;;
34317;SDS011;20582;52.196;20.952;2023-06-14T05:28:55;14.95;;;8.40;;
34317;SDS011;20582;52.196;20.952;2023-06-14T05:31:25;16.77;;;8.00;;
34317;SDS011;20582;52.196;20.952;2023-06-14T05:33:52;14.70;;;8.13;;
34317;SDS011;20582;52.196;20.952;2023-06-14T05:36:18;13.75;;;8.05;;
34317;SDS011;20582;52.196;20.952;2023-06-14T05:38:45;12.80;;;7.68;;
34317;SDS011;20582;52.196;20.952;2023-06-14T05:41:11;11.23;;;7.40;;
34317;SDS011;20582;52.196;20.952;2023-06-14T05:43:37;14.98;;;8.43;;
34317;SDS011;20582;52.196;20.952;2023-06-14T05:46:03;13.13;;;8.10;;
34317;SDS011;20582;52.196;20.952;2023-06-14T05:48:32;15.20;;;8.30;;
34317;SDS011;20582;52.196;20.952;2023-06-14T05:50:58;13.95;;;8.38;;
34317;SDS011;20582;52.196;20.952;2023-06-14T05:53:25;12.95;;;8.38;;
34317;SDS011;20582;52.196;20.952;2023-06-14T05:55:51;19.48;;;8.05;;
34317;SDS011;20582;52.196;20.952;2023-06-14T05:58:18;13.07;;;8.38;;
34317;SDS011;20582;52.196;20.952;2023-06-14T06:00:45;15.15;;;8.32;;
34317;SDS011;20582;52.196;20.952;2023-06-14T06:03:11;14.27;;;8.32;;
34317;SDS011;20582;52.196;20.952;2023-06-14T06:05:38;13.90;;;7.78;;
34317;SDS011;20582;52.196;20.952;2023-06-14T06:08:04;12.57;;;7.20;;
34317;SDS011;20582;52.196;20.952;2023-06-14T06:10:30;16.02;;;7.65;;
34317;SDS011;20582;52.196;20.952;2023-06-14T06:12:56;13.85;;;8.48;;
34317;SDS011;20582;52.196;20.952;2023-06-14T06:15:22;17.45;;;8.27;;
34317;SDS011;20582;52.196;20.952;2023-06-14T06:17:48;12.02;;;7.78;;
34317;SDS011;20582;52.196;20.952;2023-06-14T06:20:14;13.75;;;7.30;;
34317;SDS011;20582;52.196;20.952;2023-06-14T06:22:40;12.15;;;6.60;;
34317;SDS011;20582;52.196;20.952;2023-06-14T06:25:06;12.02;;;6.45;;
34317;SDS011;20582;52.196;20.952;2023-06-14T06:27:33;20.67;;;7.28;;
34317;SDS011;20582;52.196;20.952;2023-06-14T06:30:02;14.98;;;7.53;;
34317;SDS011;20582;52.196;20.952;2023-06-14T06:32:28;18.15;;;7.70;;
34317;SDS011;20582;52.196;20.952;2023-06-14T06:34:54;10.60;;;6.78;;
34317;SDS011;20582;52.196;20.952;2023-06-14T06:37:20;17.48;;;7.57;;
34317;SDS011;20582;52.196;20.952;2023-06-14T06:39:46;18.55;;;7.45;;
34317;SDS011;20582;52.196;20.952;2023-06-14T06:42:12;15.52;;;7.40;;
34317;SDS011;20582;52.196;20.952;2023-06-14T06:44:38;18.10;;;7.43;;
34317;SDS011;20582;52.196;20.952;2023-06-14T06:47:04;10.00;;;6.80;;
34317;SDS011;20582;52.196;20.952;2023-06-14T06:49:30;11.55;;;7.15;;
34317;SDS011;20582;52.196;20.952;2023-06-14T06:52:00;12.77;;;6.82;;
34317;SDS011;20582;52.196;20.952;2023-06-14T06:54:27;11.48;;;6.63;;
34317;SDS011;20582;52.196;20.952;2023-06-14T06:56:53;12.93;;;6.97;;
34317;SDS011;20582;52.196;20.952;2023-06-14T06:59:19;13.25;;;6.15;;
34317;SDS011;20582;52.196;20.952;2023-06-14T07:01:45;11.90;;;5.93;;
34317;SDS011;20582;52.196;20.952;2023-06-14T07:04:12;10.85;;;6.45;;
34317;SDS011;20582;52.196;20.952;2023-06-14T07:06:37;13.75;;;5.85;;
34317;SDS011;20582;52.196;20.952;2023-06-14T07:09:04;10.90;;;5.95;;
34317;SDS011;20582;52.196;20.952;2023-06-14T07:11:31;13.52;;;6.30;;
34317;SDS011;20582;52.196;20.952;2023-06-14T07:13:57;12.50;;;6.95;;
34317;SDS011;20582;52.196;20.952;2023-06-14T07:16:23;14.50;;;6.80;;
34317;SDS011;20582;52.196;20.952;2023-06-14T07:18:50;18.25;;;6.70;;
34317;SDS011;20582;52.196;20.952;2023-06-14T07:21:17;14.18;;;6.22;;
34317;SDS011;20582;52.196;20.952;2023-06-14T07:23:43;16.25;;;9.32;;
34317;SDS011;20582;52.196;20.952;2023-06-14T07:26:09;21.08;;;13.60;;
34317;SDS011;20582;52.196;20.952;2023-06-14T07:28:35;12.65;;;6.90;;
34317;SDS011;20582;52.196;20.952;2023-06-14T07:31:01;10.77;;;6.30;;
34317;SDS011;20582;52.196;20.952;2023-06-14T07:33:27;14.95;;;6.60;;
34317;SDS011;20582;52.196;20.952;2023-06-14T07:35:53;14.63;;;6.40;;
34317;SDS011;20582;52.196;20.952;2023-06-14T07:38:19;14.35;;;7.80;;
34317;SDS011;20582;52.196;20.952;2023-06-14T07:40:45;17.70;;;11.45;;
34317;SDS011;20582;52.196;20.952;2023-06-14T07:43:11;18.00;;;9.10;;
34317;SDS011;20582;52.196;20.952;2023-06-14T07:45:37;13.40;;;7.13;;
34317;SDS011;20582;52.196;20.952;2023-06-14T07:48:03;13.45;;;6.80;;
34317;SDS011;20582;52.196;20.952;2023-06-14T07:50:30;13.73;;;6.72;;
34317;SDS011;20582;52.196;20.952;2023-06-14T07:52:56;18.25;;;6.80;;
34317;SDS011;20582;52.196;20.952;2023-06-14T07:55:22;16.83;;;7.40;;
34317;SDS011;20582;52.196;20.952;2023-06-14T07:57:48;15.20;;;8.40;;
34317;SDS011;20582;52.196;20.952;2023-06-14T08:00:14;13.50;;;6.35;;
34317;SDS011;20582;52.196;20.952;2023-06-14T08:02:43;10.57;;;5.75;;
34317;SDS011;20582;52.196;20.952;2023-06-14T08:05:10;15.52;;;6.45;;
34317;SDS011;20582;52.196;20.952;2023-06-14T08:07:37;14.57;;;6.80;;
34317;SDS011;20582;52.196;20.952;2023-06-14T08:10:06;11.45;;;6.60;;
34317;SDS011;20582;52.196;20.952;2023-06-14T08:12:32;11.32;;;5.82;;
34317;SDS011;20582;52.196;20.952;2023-06-14T08:14:59;12.73;;;5.70;;
34317;SDS011;20582;52.196;20.952;2023-06-14T08:17:25;23.23;;;7.43;;
34317;SDS011;20582;52.196;20.952;2023-06-14T08:19:51;11.98;;;6.43;;
34317;SDS011;20582;52.196;20.952;2023-06-14T08:22:19;9.45;;;6.05;;
34317;SDS011;20582;52.196;20.952;2023-06-14T08:24:46;18.33;;;7.55;;
34317;SDS011;20582;52.196;20.952;2023-06-14T08:27:12;12.80;;;6.70;;
34317;SDS011;20582;52.196;20.952;2023-06-14T08:29:39;14.55;;;6.65;;
34317;SDS011;20582;52.196;20.952;2023-06-14T08:32:06;12.35;;;5.90;;
34317;SDS011;20582;52.196;20.952;2023-06-14T08:34:32;12.85;;;6.47;;
34317;SDS011;20582;52.196;20.952;2023-06-14T08:36:58;14.43;;;6.28;;
34317;SDS011;20582;52.196;20.952;2023-06-14T08:39:24;12.38;;;6.32;;
34317;SDS011;20582;52.196;20.952;2023-06-14T08:41:50;9.52;;;6.28;;
34317;SDS011;20582;52.196;20.952;2023-06-14T08:44:18;12.20;;;6.50;;
34317;SDS011;20582;52.196;20.952;2023-06-14T08:46:44;13.52;;;6.43;;
34317;SDS011;20582;52.196;20.952;2023-06-14T08:49:11;11.93;;;6.10;;
34317;SDS011;20582;52.196;20.952;2023-06-14T08:51:37;12.07;;;6.60;;
34317;SDS011;20582;52.196;20.952;2023-06-14T08:54:05;12.13;;;5.97;;
34317;SDS011;20582;52.196;20.952;2023-06-14T08:56:32;9.93;;;5.40;;
34317;SDS011;20582;52.196;20.952;2023-06-14T08:59:01;14.30;;;5.80;;
34317;SDS011;20582;52.196;20.952;2023-06-14T09:01:34;11.98;;;6.22;;
34317;SDS011;20582;52.196;20.952;2023-06-14T09:04:00;13.77;;;6.05;;
34317;SDS011;20582;52.196;20.952;2023-06-14T09:06:27;17.02;;;6.05;;
34317;SDS011;20582;52.196;20.952;2023-06-14T09:08:54;12.55;;;6.25;;
34317;SDS011;20582;52.196;20.952;2023-06-14T09:11:23;7.95;;;5.20;;
34317;SDS011;20582;52.196;20.952;2023-06-14T09:13:51;9.40;;;5.63;;
34317;SDS011;20582;52.196;20.952;2023-06-14T09:16:17;12.90;;;6.43;;
34317;SDS011;20582;52.196;20.952;2023-06-14T09:18:44;12.52;;;6.05;;
34317;SDS011;20582;52.196;20.952;2023-06-14T09:21:13;13.68;;;6.03;;
34317;SDS011;20582;52.196;20.952;2023-06-14T09:23:43;12.25;;;6.80;;
34317;SDS011;20582;52.196;20.952;2023-06-14T09:26:09;14.45;;;6.88;;
34317;SDS011;20582;52.196;20.952;2023-06-14T09:28:36;14.00;;;7.15;;
34317;SDS011;20582;52.196;20.952;2023-06-14T09:31:02;14.30;;;6.72;;
34317;SDS011;20582;52.196;20.952;2023-06-14T09:33:28;16.48;;;7.50;;
34317;SDS011;20582;52.196;20.952;2023-06-14T09:35:54;14.73;;;7.22;;
34317;SDS011;20582;52.196;20.952;2023-06-14T09:38:20;15.98;;;7.45;;
34317;SDS011;20582;52.196;20.952;2023-06-14T09:40:46;16.33;;;7.57;;
34317;SDS011;20582;52.196;20.952;2023-06-14T09:43:12;14.23;;;7.20;;
34317;SDS011;20582;52.196;20.952;2023-06-14T09:45:38;16.13;;;8.18;;
34317;SDS011;20582;52.196;20.952;2023-06-14T09:48:10;12.27;;;7.30;;
34317;SDS011;20582;52.196;20.952;2023-06-14T09:50:37;16.83;;;7.32;;
34317;SDS011;20582;52.196;20.952;2023-06-14T09:53:06;11.35;;;6.90;;
34317;SDS011;20582;52.196;20.952;2023-06-14T09:55:36;13.68;;;6.53;;
34317;SDS011;20582;52.196;20.952;2023-06-14T09:58:06;12.23;;;6.75;;
34317;SDS011;20582;52.196;20.952;2023-06-14T10:00:32;13.15;;;7.38;;
34317;SDS011;20582;52.196;20.952;2023-06-14T10:03:33;17.17;;;7.15;;
34317;SDS011;20582;52.196;20.952;2023-06-14T10:05:52;13.52;;;6.63;;
34317;SDS011;20582;52.196;20.952;2023-06-14T10:08:19;10.43;;;6.10;;
34317;SDS011;20582;52.196;20.952;2023-06-14T10:10:45;10.23;;;5.70;;
34317;SDS011;20582;52.196;20.952;2023-06-14T10:13:12;7.13;;;4.60;;
34317;SDS011;20582;52.196;20.952;2023-06-14T10:15:41;8.43;;;4.32;;
34317;SDS011;20582;52.196;20.952;2023-06-14T10:18:11;9.82;;;5.00;;
34317;SDS011;20582;52.196;20.952;2023-06-14T10:20:49;11.43;;;5.38;;
34317;SDS011;20582;52.196;20.952;2023-06-14T10:23:21;13.27;;;5.72;;
34317;SDS011;20582;52.196;20.952;2023-06-14T10:25:52;12.27;;;5.68;;
34317;SDS011;20582;52.196;20.952;2023-06-14T10:28:21;15.07;;;5.68;;
34317;SDS011;20582;52.196;20.952;2023-06-14T10:31:01;11.25;;;4.82;;
34317;SDS011;20582;52.196;20.952;2023-06-14T10:33:34;9.95;;;4.50;;
34317;SDS011;20582;52.196;20.952;2023-06-14T10:36:10;9.57;;;4.70;;
34317;SDS011;20582;52.196;20.952;2023-06-14T10:38:58;11.93;;;4.75;;
34317;SDS011;20582;52.196;20.952;2023-06-14T10:41:26;8.20;;;5.00;;
34317;SDS011;20582;52.196;20.952;2023-06-14T10:44:06;8.27;;;4.90;;
34317;SDS011;20582;52.196;20.952;2023-06-14T10:46:36;10.55;;;4.80;;
34317;SDS011;20582;52.196;20.952;2023-06-14T10:49:02;8.13;;;4.97;;
34317;SDS011;20582;52.196;20.952;2023-06-14T10:51:29;12.35;;;5.18;;
34317;SDS011;20582;52.196;20.952;2023-06-14T10:53:56;10.60;;;5.25;;
34317;SDS011;20582;52.196;20.952;2023-06-14T10:56:28;10.60;;;4.90;;
34317;SDS011;20582;52.196;20.952;2023-06-14T10:58:56;10.43;;;4.80;;
34317;SDS011;20582;52.196;20.952;2023-06-14T11:01:32;10.65;;;5.20;;
34317;SDS011;20582;52.196;20.952;2023-06-14T11:04:08;12.48;;;5.10;;
34317;SDS011;20582;52.196;20.952;2023-06-14T11:06:45;9.27;;;4.47;;
34317;SDS011;20582;52.196;20.952;2023-06-14T11:11:59;10.27;;;4.70;;
34317;SDS011;20582;52.196;20.952;2023-06-14T11:14:26;11.38;;;4.93;;
34317;SDS011;20582;52.196;20.952;2023-06-14T11:16:55;8.50;;;4.35;;
34317;SDS011;20582;52.196;20.952;2023-06-14T11:19:21;9.00;;;4.60;;
34317;SDS011;20582;52.196;20.952;2023-06-14T11:21:48;10.70;;;4.78;;
34317;SDS011;20582;52.196;20.952;2023-06-14T11:24:14;9.52;;;4.40;;
34317;SDS011;20582;52.196;20.952;2023-06-14T11:26:40;7.80;;;4.20;;
34317;SDS011;20582;52.196;20.952;2023-06-14T11:29:06;9.45;;;4.50;;
34317;SDS011;20582;52.196;20.952;2023-06-14T11:31:32;12.25;;;4.05;;
34317;SDS011;20582;52.196;20.952;2023-06-14T11:33:59;6.50;;;4.30;;
34317;SDS011;20582;52.196;20.952;2023-06-14T11:36:28;11.40;;;4.55;;
34317;SDS011;20582;52.196;20.952;2023-06-14T11:39:00;8.35;;;4.50;;
34317;SDS011;20582;52.196;20.952;2023-06-14T11:41:35;8.88;;;4.90;;
34317;SDS011;20582;52.196;20.952;2023-06-14T11:44:02;10.38;;;4.88;;
34317;SDS011;20582;52.196;20.952;2023-06-14T11:46:28;9.93;;;4.63;;
34317;SDS011;20582;52.196;20.952;2023-06-14T11:48:54;9.80;;;4.97;;
34317;SDS011;20582;52.196;20.952;2023-06-14T11:51:20;8.88;;;4.65;;
34317;SDS011;20582;52.196;20.952;2023-06-14T11:53:46;10.88;;;4.18;;
34317;SDS011;20582;52.196;20.952;2023-06-14T11:56:13;7.75;;;4.03;;
34317;SDS011;20582;52.196;20.952;2023-06-14T11:58:39;12.07;;;4.65;;
34317;SDS011;20582;52.196;20.952;2023-06-14T12:01:05;12.68;;;4.07;;
34317;SDS011;20582;52.196;20.952;2023-06-14T12:03:31;10.60;;;3.60;;
34317;SDS011;20582;52.196;20.952;2023-06-14T12:06:04;6.30;;;3.72;;
34317;SDS011;20582;52.196;20.952;2023-06-14T12:08:36;7.25;;;3.95;;
34317;SDS011;20582;52.196;20.952;2023-06-14T12:11:10;12.07;;;4.00;;
34317;SDS011;20582;52.196;20.952;2023-06-14T12:13:41;7.25;;;3.80;;
34317;SDS011;20582;52.196;20.952;2023-06-14T12:16:08;7.07;;;3.90;;
34317;SDS011;20582;52.196;20.952;2023-06-14T12:18:35;9.65;;;3.97;;
34317;SDS011;20582;52.196;20.952;2023-06-14T12:21:02;12.55;;;3.80;;
34317;SDS011;20582;52.196;20.952;2023-06-14T12:23:42;6.47;;;3.70;;
34317;SDS011;20582;52.196;20.952;2023-06-14T12:26:09;11.23;;;3.33;;
34317;SDS011;20582;52.196;20.952;2023-06-14T12:28:35;10.82;;;3.92;;
34317;SDS011;20582;52.196;20.952;2023-06-14T12:31:01;6.80;;;3.65;;
34317;SDS011;20582;52.196;20.952;2023-06-14T12:33:28;8.20;;;3.53;;
34317;SDS011;20582;52.196;20.952;2023-06-14T12:35:55;6.95;;;3.20;;
34317;SDS011;20582;52.196;20.952;2023-06-14T12:38:22;7.63;;;3.78;;
34317;SDS011;20582;52.196;20.952;2023-06-14T12:40:49;6.82;;;3.58;;
34317;SDS011;20582;52.196;20.952;2023-06-14T12:43:15;8.40;;;3.45;;
34317;SDS011;20582;52.196;20.952;2023-06-14T12:45:41;8.15;;;3.45;;
34317;SDS011;20582;52.196;20.952;2023-06-14T12:48:06;7.50;;;4.28;;
34317;SDS011;20582;52.196;20.952;2023-06-14T12:50:34;6.63;;;3.50;;
34317;SDS011;20582;52.196;20.952;2023-06-14T12:53:00;6.68;;;3.85;;
34317;SDS011;20582;52.196;20.952;2023-06-14T12:55:26;6.97;;;3.67;;
34317;SDS011;20582;52.196;20.952;2023-06-14T12:57:51;6.28;;;3.15;;
34317;SDS011;20582;52.196;20.952;2023-06-14T13:00:18;6.93;;;3.63;;
34317;SDS011;20582;52.196;20.952;2023-06-14T13:02:45;7.07;;;3.92;;
34317;SDS011;20582;52.196;20.952;2023-06-14T13:05:11;6.78;;;3.60;;
34317;SDS011;20582;52.196;20.952;2023-06-14T13:07:37;6.97;;;4.05;;
34317;SDS011;20582;52.196;20.952;2023-06-14T13:10:03;5.72;;;2.97;;
34317;SDS011;20582;52.196;20.952;2023-06-14T13:12:29;9.77;;;3.47;;
34317;SDS011;20582;52.196;20.952;2023-06-14T13:14:55;5.82;;;3.22;;
34317;SDS011;20582;52.196;20.952;2023-06-14T13:17:21;8.95;;;3.90;;
34317;SDS011;20582;52.196;20.952;2023-06-14T13:19:47;8.95;;;3.50;;
34317;SDS011;20582;52.196;20.952;2023-06-14T13:22:13;7.00;;;2.83;;
34317;SDS011;20582;52.196;20.952;2023-06-14T13:24:39;8.10;;;3.00;;
34317;SDS011;20582;52.196;20.952;2023-06-14T13:27:05;8.18;;;2.80;;
34317;SDS011;20582;52.196;20.952;2023-06-14T13:29:31;6.45;;;3.05;;
34317;SDS011;20582;52.196;20.952;2023-06-14T13:32:00;7.50;;;3.58;;
34317;SDS011;20582;52.196;20.952;2023-06-14T13:34:26;10.65;;;3.05;;
34317;SDS011;20582;52.196;20.952;2023-06-14T13:36:52;12.80;;;3.38;;
34317;SDS011;20582;52.196;20.952;2023-06-14T13:39:18;5.43;;;3.40;;
34317;SDS011;20582;52.196;20.952;2023-06-14T13:41:44;5.45;;;3.03;;
34317;SDS011;20582;52.196;20.952;2023-06-14T13:44:10;7.30;;;2.85;;
34317;SDS011;20582;52.196;20.952;2023-06-14T13:46:39;7.53;;;3.03;;
34317;SDS011;20582;52.196;20.952;2023-06-14T13:49:05;5.90;;;2.67;;
34317;SDS011;20582;52.196;20.952;2023-06-14T13:51:31;7.05;;;2.95;;
34317;SDS011;20582;52.196;20.952;2023-06-14T13:53:58;9.40;;;3.67;;
34317;SDS011;20582;52.196;20.952;2023-06-14T13:56:24;5.60;;;3.05;;
34317;SDS011;20582;52.196;20.952;2023-06-14T13:58:50;7.65;;;3.50;;
34317;SDS011;20582;52.196;20.952;2023-06-14T14:01:17;8.38;;;3.47;;
34317;SDS011;20582;52.196;20.952;2023-06-14T14:03:46;7.53;;;3.42;;
34317;SDS011;20582;52.196;20.952;2023-06-14T14:06:12;9.13;;;4.00;;
34317;SDS011;20582;52.196;20.952;2023-06-14T14:08:38;8.23;;;3.40;;
34317;SDS011;20582;52.196;20.952;2023-06-14T14:11:05;7.15;;;2.95;;
34317;SDS011;20582;52.196;20.952;2023-06-14T14:13:31;8.55;;;3.22;;
34317;SDS011;20582;52.196;20.952;2023-06-14T14:15:57;12.25;;;3.88;;
34317;SDS011;20582;52.196;20.952;2023-06-14T14:18:24;6.63;;;3.20;;
34317;SDS011;20582;52.196;20.952;2023-06-14T14:20:50;6.75;;;3.70;;
34317;SDS011;20582;52.196;20.952;2023-06-14T14:23:16;10.45;;;3.88;;
34317;SDS011;20582;52.196;20.952;2023-06-14T14:25:42;7.22;;;3.22;;